Time;durP1;ratioP1;P1;durP2;ratioP2;P2;SDS_P1;SDS_P2;PMS_P1;PMS_P2;Temp;Humidity;BMP_temperature;BMP_pressure;BME280_temperature;BME280_humidity;BME280_pressure;Samples;Min_cycle;Max_cycle;Signal;HPM_P1;HPM_P2
2022/07/12 00:01:39;;;;;;;2.20;1.15;;;22.40;75.40;;;;;;6178829;23;20723;-65
2022/07/12 00:04:43;;;;;;;4.00;1.38;;;22.40;75.60;;;;;;6178069;23;20027;-65
2022/07/12 00:07:47;;;;;;;2.65;1.40;;;22.30;76.00;;;;;;6177960;23;20336;-65
2022/07/12 00:10:51;;;;;;;2.15;1.55;;;22.30;75.90;;;;;;6178353;23;20344;-64
2022/07/12 00:13:55;;;;;;;1.80;1.40;;;22.30;75.80;;;;;;6179712;23;20024;-65
2022/07/12 00:16:59;;;;;;;1.42;1.00;;;22.30;76.00;;;;;;6179078;23;20016;-65
2022/07/12 00:20:04;;;;;;;1.63;1.23;;;22.30;75.70;;;;;;6178129;23;20011;-65
2022/07/12 00:23:08;;;;;;;2.55;1.40;;;22.40;75.60;;;;;;6178896;23;20017;-65
2022/07/12 00:26:12;;;;;;;1.63;1.20;;;22.40;75.50;;;;;;6177895;23;20024;-65
2022/07/12 00:29:16;;;;;;;4.30;1.30;;;22.40;75.40;;;;;;6178154;23;20584;-66
2022/07/12 00:32:20;;;;;;;1.40;1.20;;;22.40;75.40;;;;;;6178737;23;20013;-65
2022/07/12 00:35:24;;;;;;;7.43;1.60;;;22.40;75.40;;;;;;6178215;23;20020;-65
2022/07/12 00:38:28;;;;;;;2.25;1.75;;;22.40;75.20;;;;;;6178728;23;20020;-64
2022/07/12 00:41:32;;;;;;;1.95;1.20;;;22.40;75.40;;;;;;6181383;23;20016;-65
2022/07/12 00:44:36;;;;;;;1.70;1.20;;;22.40;74.80;;;;;;6178457;23;20024;-65
2022/07/12 00:47:45;;;;;;;1.83;1.48;;;22.40;75.00;;;;;;6184720;23;20363;-66
2022/07/12 00:50:49;;;;;;;5.20;1.48;;;22.40;75.30;;;;;;6181087;23;20024;-65
2022/07/12 00:53:55;;;;;;;1.77;1.15;;;22.30;75.00;;;;;;6181003;23;20036;-65
2022/07/12 00:56:59;;;;;;;4.75;1.20;;;22.30;75.30;;;;;;6179013;23;20024;-65
2022/07/12 01:00:09;;;;;;;3.25;1.15;;;22.20;75.70;;;;;;6182619;23;20024;-65
2022/07/12 01:03:13;;;;;;;2.58;1.30;;;22.20;76.10;;;;;;6179403;23;20024;-65
2022/07/12 01:06:20;;;;;;;3.70;1.85;;;22.10;76.30;;;;;;6178224;23;20019;-65
2022/07/12 01:09:23;;;;;;;4.13;1.40;;;22.10;76.40;;;;;;6178954;23;20024;-65
2022/07/12 01:12:28;;;;;;;6.25;1.73;;;22.00;76.40;;;;;;6180754;23;20016;-64
2022/07/12 01:15:32;;;;;;;6.03;1.40;;;22.00;77.20;;;;;;6177786;23;20024;-65
2022/07/12 01:18:37;;;;;;;1.55;1.00;;;22.00;76.60;;;;;;6181628;23;20016;-64
2022/07/12 01:21:43;;;;;;;3.88;1.30;;;22.00;76.60;;;;;;6178849;23;20028;-64
2022/07/12 01:24:48;;;;;;;3.40;1.30;;;21.70;77.20;;;;;;6179536;23;20360;-65
2022/07/12 01:27:52;;;;;;;3.05;1.30;;;21.50;78.60;;;;;;6182783;23;20028;-64
2022/07/12 01:30:56;;;;;;;2.03;1.33;;;21.40;79.90;;;;;;6179037;23;20028;-64
2022/07/12 01:34:02;;;;;;;1.67;1.00;;;21.30;79.90;;;;;;6179453;23;20455;-65
2022/07/12 01:37:06;;;;;;;3.45;1.40;;;21.30;80.00;;;;;;6177965;23;20307;-64
2022/07/12 01:40:12;;;;;;;2.42;1.20;;;21.30;79.60;;;;;;6180002;23;20439;-65
2022/07/12 01:43:17;;;;;;;2.45;1.50;;;21.40;79.90;;;;;;6180820;23;20012;-64
2022/07/12 01:46:21;;;;;;;3.35;1.20;;;21.40;79.60;;;;;;6178100;23;20020;-64
2022/07/12 01:49:25;;;;;;;1.40;1.25;;;21.50;79.50;;;;;;6180503;23;20020;-64
2022/07/12 01:52:29;;;;;;;1.75;1.02;;;21.50;80.40;;;;;;6182261;23;20024;-65
2022/07/12 01:55:33;;;;;;;1.98;1.17;;;21.50;79.50;;;;;;6177518;23;20024;-65
2022/07/12 01:58:37;;;;;;;1.60;1.23;;;21.50;79.50;;;;;;6182054;23;20024;-65
2022/07/12 02:01:43;;;;;;;1.60;1.23;;;21.50;80.10;;;;;;6179009;23;20016;-65
2022/07/12 02:04:48;;;;;;;3.22;1.42;;;21.50;79.90;;;;;;6179372;23;20459;-65
2022/07/12 02:07:53;;;;;;;2.60;1.45;;;21.50;80.00;;;;;;6181495;23;20337;-64
2022/07/12 02:10:57;;;;;;;1.77;1.25;;;21.50;80.40;;;;;;6179904;23;20020;-64
2022/07/12 02:14:01;;;;;;;1.33;1.10;;;21.50;80.10;;;;;;6179905;23;20071;-64
2022/07/12 02:17:05;;;;;;;3.08;1.25;;;21.40;80.70;;;;;;6181149;23;20020;-64
2022/07/12 02:20:12;;;;;;;1.45;1.20;;;21.30;79.90;;;;;;6179524;23;20448;-64
2022/07/12 02:23:15;;;;;;;2.67;1.17;;;21.20;78.90;;;;;;6179788;23;20016;-64
2022/07/12 02:26:19;;;;;;;5.43;1.20;;;21.10;79.00;;;;;;6177158;23;20028;-64
2022/07/12 02:29:23;;;;;;;1.63;1.10;;;21.00;79.10;;;;;;6180465;23;20064;-64
2022/07/12 02:32:28;;;;;;;1.05;0.95;;;21.00;79.30;;;;;;6178149;23;20016;-65
2022/07/12 02:35:32;;;;;;;1.25;1.15;;;21.00;79.50;;;;;;6179235;23;20020;-64
2022/07/12 02:38:36;;;;;;;2.70;1.23;;;21.00;79.90;;;;;;6180546;23;20020;-64
2022/07/12 02:46:16;;;;;;;4.30;1.23;;;21.00;81.40;;;;;;6177341;23;20024;-64
2022/07/12 02:49:20;;;;;;;1.83;1.20;;;20.80;81.50;;;;;;6178702;23;20020;-64
2022/07/12 02:52:24;;;;;;;1.40;1.30;;;20.70;82.60;;;;;;6182260;23;20028;-64
2022/07/12 02:55:28;;;;;;;5.13;1.40;;;20.60;83.00;;;;;;6178008;23;20024;-64
2022/07/12 02:58:34;;;;;;;2.00;1.55;;;20.40;84.10;;;;;;6178221;23;20324;-64
2022/07/12 03:01:38;;;;;;;5.03;1.63;;;20.20;86.40;;;;;;6182010;23;20016;-64
2022/07/12 03:04:42;;;;;;;1.33;1.23;;;20.10;87.10;;;;;;6182242;23;20016;-65
2022/07/12 03:07:46;;;;;;;1.70;1.40;;;20.00;87.00;;;;;;6179349;23;20021;-64
2022/07/12 03:10:50;;;;;;;1.42;1.00;;;19.90;87.40;;;;;;6178420;23;20340;-64
2022/07/12 03:13:54;;;;;;;3.55;1.55;;;19.70;88.40;;;;;;6178299;23;20016;-64
2022/07/12 03:16:58;;;;;;;2.95;1.52;;;19.60;90.00;;;;;;6178245;23;20466;-64
2022/07/12 03:20:06;;;;;;;4.28;1.45;;;19.50;91.30;;;;;;6179014;23;20350;-64
2022/07/12 03:23:10;;;;;;;2.40;1.73;;;19.40;91.50;;;;;;6180710;23;20020;-64
2022/07/12 03:26:14;;;;;;;6.05;1.80;;;19.30;92.30;;;;;;6182144;23;20017;-64
2022/07/12 03:29:18;;;;;;;5.47;1.88;;;19.20;94.20;;;;;;6185442;23;20020;-65
2022/07/12 03:32:22;;;;;;;4.05;2.08;;;19.20;93.50;;;;;;6181229;23;20020;-65
2022/07/12 03:35:26;;;;;;;1.92;1.45;;;19.10;93.90;;;;;;6182296;23;20028;-64
2022/07/12 03:38:30;;;;;;;4.78;1.75;;;19.10;94.40;;;;;;6178784;23;20012;-65
2022/07/12 03:41:34;;;;;;;3.50;1.73;;;19.10;94.50;;;;;;6181503;23;20020;-65
2022/07/12 03:44:38;;;;;;;2.40;1.98;;;19.20;94.30;;;;;;6180106;23;20507;-64
2022/07/12 03:47:42;;;;;;;5.35;1.65;;;19.40;93.60;;;;;;6179563;23;20020;-64
2022/07/12 03:50:46;;;;;;;2.20;1.30;;;19.40;93.20;;;;;;6183423;23;20020;-64
2022/07/12 03:53:50;;;;;;;1.63;1.30;;;19.50;92.80;;;;;;6179645;23;20048;-65
2022/07/12 04:00:17;;;;;;;2.42;1.17;;;19.50;92.40;;;;;;6181356;23;20016;-64
2022/07/12 04:03:24;;;;;;;1.95;1.23;;;19.50;92.50;;;;;;6182514;23;20332;-64
2022/07/12 04:06:29;;;;;;;2.30;1.30;;;19.50;92.00;;;;;;6178606;23;20027;-64
2022/07/12 04:09:34;;;;;;;3.38;1.38;;;19.60;91.50;;;;;;6183764;23;20024;-64
2022/07/12 04:12:38;;;;;;;1.58;1.02;;;19.80;90.70;;;;;;6181855;23;20016;-64
2022/07/12 04:15:43;;;;;;;5.03;1.40;;;19.90;90.50;;;;;;6178055;23;20057;-65
2022/07/12 04:18:47;;;;;;;3.67;1.33;;;20.00;90.70;;;;;;6183353;23;20016;-65
2022/07/12 04:21:51;;;;;;;1.95;1.50;;;20.10;90.70;;;;;;6163790;23;20020;-65
2022/07/12 04:24:56;;;;;;;4.13;1.67;;;20.20;91.10;;;;;;6178702;23;20028;-65
2022/07/12 04:28:01;;;;;;;1.98;1.52;;;20.30;92.20;;;;;;6179030;23;20024;-64
2022/07/12 04:31:05;;;;;;;1.48;1.35;;;20.40;92.50;;;;;;6181311;23;20026;-65
2022/07/12 04:34:09;;;;;;;2.80;1.60;;;20.60;92.60;;;;;;6179859;23;20020;-65
2022/07/12 04:37:13;;;;;;;2.30;1.70;;;20.90;92.30;;;;;;6179763;23;20040;-65
2022/07/12 04:40:18;;;;;;;2.40;1.30;;;21.20;91.80;;;;;;6182145;23;20016;-64
2022/07/12 04:43:24;;;;;;;2.03;1.30;;;21.40;90.30;;;;;;6178792;23;20479;-65
2022/07/12 04:46:28;;;;;;;3.97;1.40;;;21.60;89.80;;;;;;6180211;23;20024;-65
2022/07/12 04:49:33;;;;;;;3.50;1.33;;;21.60;90.70;;;;;;6181372;23;20059;-65
2022/07/12 04:52:37;;;;;;;2.25;1.40;;;21.60;89.60;;;;;;6181014;23;20020;-65
2022/07/12 04:55:42;;;;;;;2.10;1.50;;;21.60;90.20;;;;;;6181582;23;20447;-65
2022/07/12 04:58:47;;;;;;;3.80;1.77;;;21.60;90.70;;;;;;6179165;23;20036;-65
2022/07/12 05:01:51;;;;;;;6.25;1.65;;;21.70;91.00;;;;;;6181091;23;20019;-64
2022/07/12 05:04:55;;;;;;;1.80;1.30;;;21.70;91.10;;;;;;6178295;23;20473;-65
2022/07/12 05:08:00;;;;;;;3.90;1.80;;;21.70;91.00;;;;;;6179509;23;20024;-65
2022/07/12 05:11:05;;;;;;;3.72;1.63;;;21.90;90.90;;;;;;6181642;23;20020;-65
2022/07/12 05:14:09;;;;;;;8.57;1.75;;;22.00;90.50;;;;;;6180496;23;20028;-65
2022/07/12 05:17:13;;;;;;;7.95;1.75;;;22.00;90.20;;;;;;6178305;23;20016;-65
2022/07/12 05:20:17;;;;;;;5.30;1.75;;;21.90;91.20;;;;;;6180466;23;20016;-65
2022/07/12 05:23:21;;;;;;;2.38;1.88;;;21.00;93.00;;;;;;6178253;23;20028;-66
2022/07/12 05:26:25;;;;;;;5.78;1.75;;;20.80;94.40;;;;;;6180113;23;20028;-65
2022/07/12 05:29:29;;;;;;;2.92;2.00;;;20.80;95.50;;;;;;6179930;23;20494;-65
2022/07/12 05:32:33;;;;;;;15.40;2.28;;;20.50;96.80;;;;;;6179859;23;20028;-65
2022/07/12 05:35:38;;;;;;;4.93;1.90;;;20.10;98.50;;;;;;6161290;23;20020;-65
2022/07/12 05:38:42;;;;;;;3.70;2.10;;;20.10;99.60;;;;;;6177952;23;20024;-64
2022/07/12 05:41:46;;;;;;;3.25;1.80;;;20.00;99.90;;;;;;6179417;23;20043;-65
2022/07/12 05:44:50;;;;;;;4.60;1.98;;;19.90;99.90;;;;;;6179200;23;20020;-65
2022/07/12 05:47:54;;;;;;;6.18;3.25;;;19.90;99.90;;;;;;6179158;23;20036;-64
2022/07/12 05:54:20;;;;;;;2.90;1.75;;;19.80;99.90;;;;;;6177469;23;20028;-65
2022/07/12 05:57:24;;;;;;;4.00;1.98;;;20.00;99.90;;;;;;6177645;23;20363;-65
2022/07/12 06:00:28;;;;;;;3.17;1.73;;;20.10;99.90;;;;;;6177599;23;20016;-65
2022/07/12 06:03:32;;;;;;;5.68;2.15;;;20.10;99.90;;;;;;6177426;23;20020;-65
2022/07/12 06:06:36;;;;;;;5.07;1.83;;;20.50;99.90;;;;;;6178775;23;20016;-65
2022/07/12 06:09:40;;;;;;;2.28;1.75;;;21.20;99.90;;;;;;6180114;23;20028;-65
2022/07/12 06:12:44;;;;;;;3.03;1.58;;;22.20;99.50;;;;;;6178642;23;20015;-65
2022/07/12 06:15:48;;;;;;;4.30;1.85;;;22.60;98.10;;;;;;6179499;23;20016;-66
2022/07/12 06:18:52;;;;;;;6.40;1.83;;;23.00;96.90;;;;;;6178316;23;20016;-65
2022/07/12 06:21:56;;;;;;;5.05;1.65;;;23.30;95.70;;;;;;6179935;23;20397;-65
2022/07/12 06:25:00;;;;;;;2.90;1.60;;;23.40;95.10;;;;;;6179060;23;20450;-66
2022/07/12 06:28:05;;;;;;;13.65;2.55;;;23.60;94.40;;;;;;6177458;23;20336;-67
2022/07/12 06:31:09;;;;;;;11.25;2.35;;;24.00;93.60;;;;;;6184644;23;20114;-65
2022/07/12 06:34:13;;;;;;;2.90;1.58;;;24.50;93.30;;;;;;6177966;23;20039;-65
2022/07/12 06:37:17;;;;;;;6.10;2.20;;;25.10;91.00;;;;;;6177004;23;20020;-65
2022/07/12 06:40:21;;;;;;;4.68;1.83;;;25.50;89.50;;;;;;6174954;23;20024;-64
2022/07/12 06:43:25;;;;;;;3.08;1.55;;;25.50;87.90;;;;;;6177938;23;20324;-65
2022/07/12 06:46:30;;;;;;;4.85;1.52;;;25.20;88.00;;;;;;6160066;23;20024;-66
2022/07/12 06:49:34;;;;;;;6.40;2.28;;;25.20;87.90;;;;;;6177798;23;20025;-66
2022/07/12 06:52:38;;;;;;;3.97;2.13;;;26.10;86.40;;;;;;6178100;23;20028;-66
2022/07/12 06:55:45;;;;;;;3.50;1.70;;;27.20;83.70;;;;;;6177068;23;20021;-66
2022/07/12 06:58:48;;;;;;;8.07;1.85;;;27.50;82.00;;;;;;6177816;23;20134;-65
2022/07/12 07:01:55;;;;;;;2.88;1.65;;;27.50;81.40;;;;;;6177590;23;20518;-66
2022/07/12 07:04:59;;;;;;;5.55;1.50;;;27.60;80.70;;;;;;6176851;23;20024;-65
2022/07/12 07:08:04;;;;;;;4.22;1.70;;;27.60;81.20;;;;;;6177486;23;20024;-66
2022/07/12 07:11:09;;;;;;;6.45;1.67;;;28.30;79.60;;;;;;6177798;23;20020;-65
2022/07/12 07:14:14;;;;;;;8.32;1.98;;;28.00;80.30;;;;;;6176524;23;20028;-64
2022/07/12 07:17:19;;;;;;;3.72;1.83;;;26.00;83.80;;;;;;6176744;23;20020;-65
2022/07/12 07:20:23;;;;;;;6.15;1.90;;;24.40;88.70;;;;;;6177703;23;20016;-65
2022/07/12 07:23:27;;;;;;;6.15;2.55;;;24.10;90.90;;;;;;6178125;23;20086;-64
2022/07/12 07:26:32;;;;;;;5.20;2.35;;;23.40;93.10;;;;;;6176269;23;20493;-65
2022/07/12 07:33:00;;;;;;;7.47;2.20;;;22.90;97.20;;;;;;6175991;23;20332;-65
2022/07/12 07:36:04;;;;;;;4.80;2.10;;;23.00;97.80;;;;;;6183869;23;20490;-64
2022/07/12 07:39:08;;;;;;;4.72;2.63;;;23.20;97.60;;;;;;6179286;23;20020;-64
2022/07/12 07:42:13;;;;;;;5.20;2.28;;;23.00;98.30;;;;;;6179196;23;20724;-65
2022/07/12 07:45:17;;;;;;;6.85;1.98;;;23.40;98.50;;;;;;6178531;23;20020;-65
2022/07/12 07:48:21;;;;;;;5.30;1.63;;;25.80;94.20;;;;;;6184731;23;20028;-65
2022/07/12 07:51:25;;;;;;;3.03;1.75;;;28.10;90.00;;;;;;6180125;23;20016;-65
2022/07/12 07:54:29;;;;;;;6.50;1.88;;;29.20;85.70;;;;;;6179999;23;20024;-65
2022/07/12 07:57:33;;;;;;;6.43;1.67;;;30.00;82.10;;;;;;6179231;23;20020;-66
2022/07/12 08:00:39;;;;;;;4.18;1.90;;;29.40;80.70;;;;;;6180440;23;20016;-65
2022/07/12 08:03:43;;;;;;;4.22;2.35;;;28.60;82.00;;;;;;6184760;23;20012;-65
2022/07/12 08:06:49;;;;;;;8.68;2.80;;;26.90;86.00;;;;;;6167240;23;20017;-66
2022/07/12 08:09:53;;;;;;;18.55;3.67;;;26.20;89.80;;;;;;6181852;23;20024;-66
2022/07/12 08:12:57;;;;;;;5.95;2.97;;;26.30;89.50;;;;;;6180071;23;20024;-65
2022/07/12 08:16:01;;;;;;;7.07;3.08;;;26.10;88.90;;;;;;6184516;23;20024;-65
2022/07/12 08:19:05;;;;;;;4.80;2.55;;;25.70;90.00;;;;;;6184067;23;20016;-65
2022/07/12 08:22:09;;;;;;;9.73;2.35;;;25.50;90.20;;;;;;6178802;23;20024;-65
2022/07/12 08:25:14;;;;;;;5.30;2.20;;;26.30;90.30;;;;;;6182105;23;20016;-65
2022/07/12 08:28:18;;;;;;;4.57;2.30;;;26.50;89.30;;;;;;6181817;23;20024;-65
2022/07/12 08:31:22;;;;;;;6.50;2.42;;;27.40;87.00;;;;;;6182273;23;20024;-63
2022/07/12 08:34:26;;;;;;;4.88;2.00;;;29.40;84.30;;;;;;6177716;23;20020;-65
2022/07/12 08:37:31;;;;;;;5.30;2.20;;;31.60;78.60;;;;;;6178188;23;20027;-66
2022/07/12 08:40:36;;;;;;;3.92;1.80;;;32.60;75.80;;;;;;6180163;23;20020;-67
2022/07/12 08:43:41;;;;;;;3.20;1.80;;;33.10;75.70;;;;;;6180472;23;20028;-65
2022/07/12 08:46:46;;;;;;;4.40;2.13;;;32.60;75.20;;;;;;6181987;23;20036;-64
2022/07/12 08:50:10;;;;;;;7.85;2.00;;;31.30;76.30;;;;;;6164039;23;20016;-66
2022/07/12 08:53:14;;;;;;;8.10;2.10;;;30.70;77.90;;;;;;6180278;23;20032;-65
2022/07/12 08:56:33;;;;;;;7.53;2.08;;;30.60;77.80;;;;;;6145748;23;20026;-65
2022/07/12 08:59:37;;;;;;;5.45;2.15;;;30.30;78.50;;;;;;6178915;23;20024;-64
2022/07/12 09:02:55;;;;;;;5.53;2.10;;;30.10;79.90;;;;;;6180262;23;20042;-64
2022/07/12 09:05:59;;;;;;;8.18;2.10;;;30.70;79.90;;;;;;6179244;23;20020;-65
2022/07/12 09:09:04;;;;;;;4.85;1.90;;;29.90;80.60;;;;;;6179026;23;20028;-65
2022/07/12 09:12:22;;;;;;;5.57;2.25;;;30.20;80.00;;;;;;6179307;23;20020;-65
2022/07/12 09:15:27;;;;;;;3.28;1.67;;;30.70;79.30;;;;;;6179726;23;20024;-64
2022/07/12 09:18:32;;;;;;;3.33;1.40;;;30.90;79.20;;;;;;6161276;23;20021;-65
2022/07/12 09:21:36;;;;;;;5.57;1.95;;;33.00;77.00;;;;;;6179926;23;20016;-66
2022/07/12 09:24:40;;;;;;;6.90;1.45;;;35.70;73.30;;;;;;6176648;23;20024;-65
2022/07/12 09:27:56;;;;;;;8.65;1.42;;;38.30;68.80;;;;;;6178136;23;20451;-65
2022/07/12 09:31:00;;;;;;;6.43;1.40;;;35.50;71.50;;;;;;6179993;23;20024;-64
2022/07/12 09:37:41;;;;;;;7.28;1.60;;;35.70;70.40;;;;;;6160843;23;20036;-66
2022/07/12 09:40:48;;;;;;;3.22;1.50;;;37.10;69.60;;;;;;6177985;23;20025;-65
2022/07/12 09:43:53;;;;;;;4.30;1.60;;;38.20;67.60;;;;;;6177874;23;20020;-65
2022/07/12 09:47:00;;;;;;;5.18;1.17;;;37.30;68.20;;;;;;6179007;23;20336;-65
2022/07/12 09:50:07;;;;;;;2.92;1.20;;;39.80;64.80;;;;;;6184882;23;20016;-65
2022/07/12 09:53:13;;;;;;;4.43;1.33;;;41.90;63.00;;;;;;6178329;23;20024;-65
2022/07/12 09:56:20;;;;;;;4.95;1.25;;;40.60;62.00;;;;;;6183373;23;20020;-64
2022/07/12 09:59:28;;;;;;;5.35;1.20;;;40.20;61.20;;;;;;6186842;23;20024;-65
2022/07/12 10:02:32;;;;;;;1.95;1.10;;;40.10;61.20;;;;;;6181787;23;20020;-64
2022/07/12 10:05:38;;;;;;;4.57;1.15;;;38.20;61.90;;;;;;6187549;23;20016;-65
2022/07/12 10:08:43;;;;;;;1.80;1.15;;;38.00;61.60;;;;;;6182849;23;20020;-65
2022/07/12 10:11:49;;;;;;;1.50;1.00;;;37.20;61.50;;;;;;6178570;23;20335;-64
2022/07/12 10:15:01;;;;;;;2.65;1.00;;;36.50;62.70;;;;;;6180866;23;20020;-64
2022/07/12 10:18:05;;;;;;;3.55;1.25;;;35.30;65.70;;;;;;6181593;23;20024;-64
2022/07/12 10:21:24;;;;;;;1.67;1.20;;;36.70;65.10;;;;;;6180871;23;20020;-64
2022/07/12 10:24:44;;;;;;;17.35;2.03;;;39.10;62.80;;;;;;6179389;23;20337;-64
2022/07/12 10:27:49;;;;;;;2.85;1.27;;;42.10;60.50;;;;;;6187112;23;20020;-64
2022/07/12 10:30:53;;;;;;;2.83;0.98;;;45.00;57.30;;;;;;6181540;23;20294;-65
2022/07/12 10:34:13;;;;;;;3.42;1.00;;;45.60;55.30;;;;;;6184916;23;20067;-66
2022/07/12 10:37:17;;;;;;;2.78;0.90;;;44.90;55.80;;;;;;6186284;23;20041;-65
2022/07/12 10:40:21;;;;;;;2.38;1.00;;;45.60;55.20;;;;;;6177160;23;20024;-63
2022/07/12 10:47:02;;;;;;;3.20;0.90;;;45.20;55.30;;;;;;6185158;23;20024;-63
2022/07/12 10:50:06;;;;;;;1.35;0.88;;;45.10;54.80;;;;;;6184578;23;20028;-64
2022/07/12 10:53:22;;;;;;;3.03;0.90;;;44.60;55.00;;;;;;6181720;23;20020;-65
2022/07/12 10:56:27;;;;;;;2.90;1.00;;;44.50;55.50;;;;;;6185426;23;20020;-65
2022/07/12 10:59:34;;;;;;;1.80;0.82;;;42.40;54.90;;;;;;6179205;23;20037;-65
2022/07/12 11:02:39;;;;;;;3.00;0.90;;;42.20;56.10;;;;;;6177354;23;20041;-65
2022/07/12 11:05:44;;;;;;;3.03;1.30;;;37.80;57.50;;;;;;6177068;23;20374;-65
2022/07/12 11:08:51;;;;;;;2.42;1.00;;;35.40;62.30;;;;;;6178896;23;20024;-65
2022/07/12 11:11:55;;;;;;;3.03;1.10;;;35.30;62.90;;;;;;6181819;23;20020;-64
2022/07/12 11:15:01;;;;;;;2.42;0.90;;;38.40;61.60;;;;;;6180680;23;20020;-65
2022/07/12 11:18:05;;;;;;;3.03;1.08;;;39.80;60.00;;;;;;6185728;23;20451;-66
2022/07/12 11:21:10;;;;;;;4.30;1.08;;;41.50;57.20;;;;;;6183015;23;20333;-65
2022/07/12 11:24:19;;;;;;;1.90;1.00;;;39.50;58.00;;;;;;6180391;23;20016;-66
2022/07/12 11:27:26;;;;;;;2.22;0.90;;;41.90;57.40;;;;;;6182704;23;20037;-63
2022/07/12 11:30:30;;;;;;;3.08;0.73;;;44.40;55.90;;;;;;6182453;23;20363;-63
2022/07/12 11:33:46;;;;;;;2.25;0.80;;;44.60;54.50;;;;;;6178945;23;20024;-65
2022/07/12 11:36:55;;;;;;;1.38;0.95;;;46.00;54.10;;;;;;6180542;23;20048;-64
2022/07/12 11:39:59;;;;;;;1.20;0.82;;;45.80;53.80;;;;;;6181870;23;20020;-65
2022/07/12 11:43:04;;;;;;;3.10;0.80;;;45.20;54.60;;;;;;6179459;23;20020;-64
2022/07/12 11:46:10;;;;;;;2.42;0.80;;;43.50;54.50;;;;;;6189006;23;20020;-65
2022/07/12 11:49:15;;;;;;;3.30;1.10;;;42.60;55.10;;;;;;6188369;23;20024;-65
2022/07/12 11:52:24;;;;;;;3.50;1.00;;;41.70;56.10;;;;;;6178321;23;20454;-65
2022/07/12 11:55:29;;;;;;;3.25;1.00;;;42.20;55.90;;;;;;6186705;23;20028;-65
2022/07/12 11:58:40;;;;;;;2.50;0.95;;;41.30;56.70;;;;;;6178681;23;20041;-64
2022/07/12 12:02:07;;;;;;;1.48;0.80;;;41.90;56.70;;;;;;6169407;23;20024;-64
2022/07/12 12:05:11;;;;;;;5.13;0.93;;;43.10;55.70;;;;;;6187493;23;20020;-65
2022/07/12 12:08:17;;;;;;;1.90;0.82;;;43.30;55.70;;;;;;6187631;23;20020;-64
2022/07/12 12:11:28;;;;;;;3.42;0.88;;;41.10;56.40;;;;;;6186603;23;20040;-66
2022/07/12 12:14:34;;;;;;;1.52;0.90;;;37.00;58.60;;;;;;6187048;23;20020;-63
2022/07/12 12:18:02;;;;;;;1.52;1.00;;;35.50;62.30;;;;;;6186691;23;20020;-64
2022/07/12 12:21:08;;;;;;;4.28;1.30;;;35.70;60.80;;;;;;6184404;23;20020;-63
2022/07/12 12:24:12;;;;;;;2.35;1.00;;;35.40;60.00;;;;;;6182507;23;20012;-64
2022/07/12 12:27:24;;;;;;;3.50;1.30;;;36.80;59.80;;;;;;6180393;23;20031;-63
2022/07/12 12:30:32;;;;;;;2.85;0.90;;;37.90;59.10;;;;;;6162021;23;20020;-64
2022/07/12 12:33:42;;;;;;;4.18;0.93;;;38.40;57.40;;;;;;6187698;23;20020;-64
2022/07/12 12:36:46;;;;;;;3.27;1.20;;;38.90;57.00;;;;;;6183241;23;20340;-65
2022/07/12 12:39:53;;;;;;;1.13;0.82;;;39.40;56.70;;;;;;6181906;23;20020;-64
2022/07/12 12:43:17;;;;;;;4.45;0.93;;;39.20;56.80;;;;;;6183728;23;20020;-65
2022/07/12 12:46:21;;;;;;;3.78;1.10;;;36.10;58.50;;;;;;6188405;23;20024;-64
2022/07/12 12:49:49;;;;;;;2.83;1.05;;;37.20;57.80;;;;;;6183985;23;20028;-64
2022/07/12 12:52:53;;;;;;;1.55;1.10;;;37.00;56.80;;;;;;6182195;23;20024;-64
2022/07/12 12:55:57;;;;;;;3.97;0.80;;;38.00;56.20;;;;;;6188571;23;20024;-64
2022/07/12 12:59:01;;;;;;;4.82;1.00;;;38.40;55.60;;;;;;6181553;23;20016;-64
2022/07/12 13:02:07;;;;;;;4.80;1.73;;;37.90;55.70;;;;;;6183479;23;20020;-63
2022/07/12 13:05:10;;;;;;;1.08;0.80;;;36.90;52.20;;;;;;6179571;23;20486;-64
2022/07/12 13:08:16;;;;;;;2.35;1.15;;;37.10;52.80;;;;;;6183081;23;20027;-63
2022/07/12 13:11:22;;;;;;;3.17;1.00;;;37.50;52.90;;;;;;6159705;23;20340;-65
2022/07/12 13:14:26;;;;;;;2.28;1.10;;;38.20;53.20;;;;;;6176593;23;20360;-64
2022/07/12 13:17:33;;;;;;;3.35;0.93;;;37.80;52.30;;;;;;6182184;23;20024;-63
2022/07/12 13:20:36;;;;;;;1.83;0.90;;;37.90;52.80;;;;;;6180588;23;20021;-64
2022/07/12 13:23:42;;;;;;;5.70;1.83;;;37.60;53.20;;;;;;6178596;23;20025;-64
2022/07/12 13:26:46;;;;;;;1.15;0.82;;;36.60;52.80;;;;;;6181790;23;20020;-64
2022/07/12 13:29:51;;;;;;;2.35;0.82;;;37.00;53.40;;;;;;6179429;23;20478;-63
2022/07/12 13:32:55;;;;;;;2.72;1.23;;;36.30;52.60;;;;;;6181350;23;20041;-64
2022/07/12 13:35:59;;;;;;;3.58;1.05;;;36.40;54.20;;;;;;6180419;23;20024;-64
2022/07/12 13:42:25;;;;;;;2.92;0.80;;;35.90;55.50;;;;;;6178557;23;20021;-64
2022/07/12 13:45:29;;;;;;;8.20;1.40;;;34.40;54.80;;;;;;6179562;23;20020;-63
2022/07/12 13:48:33;;;;;;;3.97;1.10;;;34.60;54.70;;;;;;6161291;23;20020;-63
2022/07/12 13:51:37;;;;;;;1.20;0.90;;;33.90;54.40;;;;;;6179226;23;20331;-64
2022/07/12 13:54:43;;;;;;;1.58;1.10;;;32.60;55.40;;;;;;6177986;23;20022;-66
2022/07/12 13:57:47;;;;;;;2.22;1.08;;;32.40;55.70;;;;;;6178847;23;20020;-64
2022/07/12 14:00:51;;;;;;;2.05;1.10;;;32.00;55.80;;;;;;6179155;23;20016;-65
2022/07/12 14:03:55;;;;;;;2.08;1.00;;;32.00;56.30;;;;;;6177673;23;20024;-65
2022/07/12 14:07:00;;;;;;;3.65;1.02;;;33.10;56.30;;;;;;6178464;23;20024;-66
2022/07/12 14:10:05;;;;;;;1.58;0.90;;;32.50;56.40;;;;;;6178539;23;20028;-66
2022/07/12 14:13:09;;;;;;;1.77;0.88;;;33.10;56.10;;;;;;6178399;23;20462;-66
2022/07/12 14:16:13;;;;;;;2.58;1.02;;;33.70;55.50;;;;;;6178283;23;20021;-65
2022/07/12 14:19:17;;;;;;;1.83;0.88;;;33.90;55.10;;;;;;6178399;23;20012;-65
2022/07/12 14:22:22;;;;;;;1.70;0.85;;;34.20;54.80;;;;;;6177608;23;20024;-64
2022/07/12 14:25:27;;;;;;;6.88;1.02;;;34.40;54.80;;;;;;6177713;23;20459;-64
2022/07/12 14:28:31;;;;;;;6.57;1.10;;;34.30;55.40;;;;;;6178080;23;20031;-65
2022/07/12 14:31:35;;;;;;;4.93;1.17;;;34.30;55.30;;;;;;6162070;23;20020;-65
2022/07/12 14:34:39;;;;;;;11.38;1.30;;;34.30;55.80;;;;;;6178444;23;20025;-66
2022/07/12 14:37:43;;;;;;;4.55;1.05;;;34.50;55.80;;;;;;6179429;23;20340;-65
2022/07/12 14:40:48;;;;;;;1.80;1.02;;;34.60;55.80;;;;;;6180941;23;20020;-65
2022/07/12 14:43:52;;;;;;;4.43;1.00;;;34.70;55.40;;;;;;6178047;23;20024;-65
2022/07/12 14:46:55;;;;;;;4.15;1.02;;;34.30;56.70;;;;;;6181763;23;20020;-65
2022/07/12 14:50:01;;;;;;;2.42;1.15;;;33.80;57.10;;;;;;6179295;23;20456;-65
2022/07/12 14:53:05;;;;;;;1.33;0.80;;;34.00;57.80;;;;;;6181027;23;20024;-64
2022/07/12 14:56:09;;;;;;;7.63;1.33;;;34.00;57.40;;;;;;6179882;23;20336;-64
2022/07/12 14:59:13;;;;;;;4.40;1.20;;;34.20;56.90;;;;;;6179174;23;20036;-65
2022/07/12 15:02:17;;;;;;;3.97;1.10;;;34.20;57.30;;;;;;6180481;23;20455;-65
2022/07/12 15:05:22;;;;;;;5.82;1.17;;;34.20;57.10;;;;;;6179855;23;20024;-65
2022/07/12 15:08:26;;;;;;;16.75;1.55;;;34.40;57.50;;;;;;6180046;23;20459;-65
2022/07/12 15:11:30;;;;;;;4.22;1.30;;;34.40;57.20;;;;;;6179477;23;20020;-65
2022/07/12 15:14:34;;;;;;;3.78;1.10;;;34.40;56.40;;;;;;6178947;23;20020;-64
2022/07/12 15:17:38;;;;;;;1.70;1.20;;;34.20;56.20;;;;;;6179605;23;20024;-65
2022/07/12 15:20:42;;;;;;;2.70;1.20;;;33.70;58.00;;;;;;6179459;23;20017;-64
2022/07/12 15:23:46;;;;;;;5.20;1.40;;;33.20;59.00;;;;;;6178347;23;20016;-65
2022/07/12 15:26:50;;;;;;;3.65;1.38;;;32.70;59.80;;;;;;6178666;23;20363;-65
2022/07/12 15:29:54;;;;;;;2.20;1.42;;;32.50;60.30;;;;;;6160196;23;20028;-65
2022/07/12 15:32:58;;;;;;;2.60;1.20;;;32.50;60.50;;;;;;6185408;23;20016;-65
2022/07/12 15:36:01;;;;;;;4.07;1.30;;;32.40;60.50;;;;;;6179277;23;20028;-66
2022/07/12 15:39:06;;;;;;;1.65;1.17;;;32.30;61.20;;;;;;6179046;23;20016;-65
2022/07/12 15:42:10;;;;;;;4.40;1.40;;;32.30;61.50;;;;;;6178225;23;20020;-66
2022/07/12 15:45:15;;;;;;;4.13;1.50;;;32.40;61.60;;;;;;6177770;23;20348;-65
2022/07/12 15:48:19;;;;;;;1.58;1.10;;;32.50;62.00;;;;;;6178322;23;20024;-64
2022/07/12 15:53:27;;;;;;;1.92;1.40;;;32.50;61.50;;;;;;6179124;23;20019;-64
2022/07/12 15:54:47;;;;;;;2.38;1.27;;;32.90;62.00;;;;;;6177595;23;20024;-64
2022/07/12 15:57:51;;;;;;;2.15;1.40;;;33.40;60.00;;;;;;6178989;23;20021;-64
2022/07/12 16:00:55;;;;;;;2.58;1.30;;;32.80;59.80;;;;;;6160948;23;20024;-64
2022/07/12 16:03:59;;;;;;;4.00;1.30;;;33.10;60.20;;;;;;6161896;23;20035;-64
2022/07/12 16:07:04;;;;;;;2.15;1.48;;;33.30;60.80;;;;;;6178806;23;20024;-64
2022/07/12 16:10:08;;;;;;;2.67;1.40;;;33.60;61.10;;;;;;6184291;23;20028;-64
2022/07/12 16:13:14;;;;;;;2.65;1.58;;;34.10;60.50;;;;;;6177707;23;20040;-63
2022/07/12 16:16:18;;;;;;;3.28;1.30;;;34.50;59.60;;;;;;6179629;23;20024;-63
2022/07/12 16:19:22;;;;;;;2.10;1.75;;;34.90;59.60;;;;;;6180372;23;20290;-64
2022/07/12 16:22:26;;;;;;;2.78;1.60;;;34.90;59.60;;;;;;6180692;23;20020;-64
2022/07/12 16:25:30;;;;;;;1.67;1.20;;;34.60;59.80;;;;;;6181726;23;20021;-64
2022/07/12 16:28:34;;;;;;;3.90;1.30;;;34.60;59.10;;;;;;6178471;23;20340;-64